Time;durP1;ratioP1;P1;durP2;ratioP2;P2;SDS_P1;SDS_P2;PMS_P1;PMS_P2;Temp;Humidity;BMP_temperature;BMP_pressure;BME280_temperature;BME280_humidity;BME280_pressure;Samples;Min_cycle;Max_cycle;Signal;HPM_P1;HPM_P2
2021/08/08 00:01:21;;;;;;;9.00;6.65;;;;;;;16.58;78.95;100046.91;4953199;28;20448;-86
2021/08/08 00:03:50;;;;;;;8.40;6.85;;;;;;;16.55;79.01;100047.19;4986009;28;20394;-84
2021/08/08 00:06:17;;;;;;;8.90;7.28;;;;;;;16.52;78.88;100050.94;4969229;28;20053;-85
2021/08/08 00:08:44;;;;;;;9.20;7.13;;;;;;;16.33;79.77;100041.13;4967936;28;20031;-85
2021/08/08 00:11:10;;;;;;;10.13;8.00;;;;;;;16.35;79.80;100046.31;4985169;28;20081;-83
2021/08/08 00:13:36;;;;;;;12.70;8.60;;;;;;;16.12;80.85;100047.41;4968081;28;20034;-84
2021/08/08 00:16:02;;;;;;;14.18;9.13;;;;;;;16.22;80.73;100057.25;4964690;28;20059;-85
2021/08/08 00:18:29;;;;;;;15.38;10.13;;;;;;;16.15;80.72;100054.28;4968101;28;20038;-85
2021/08/08 00:20:54;;;;;;;13.75;9.75;;;;;;;16.19;80.74;100043.19;4965197;28;20038;-85
2021/08/08 00:23:20;;;;;;;12.90;9.95;;;;;;;16.22;80.86;100046.56;4984898;28;20035;-85
2021/08/08 00:25:45;;;;;;;12.25;10.43;;;;;;;16.19;80.82;100056.53;4968377;28;20054;-85
2021/08/08 00:28:12;;;;;;;13.90;10.80;;;;;;;16.23;80.89;100048.25;4952302;28;20061;-86
2021/08/08 00:30:37;;;;;;;13.27;11.18;;;;;;;16.24;81.21;100050.78;4970017;28;20046;-84
2021/08/08 00:33:05;;;;;;;15.95;11.57;;;;;;;16.33;80.81;100045.59;4987225;28;20034;-85
2021/08/08 00:35:30;;;;;;;15.55;10.95;;;;;;;16.37;80.94;100042.53;4986471;23;20083;-86
2021/08/08 00:37:56;;;;;;;13.82;10.60;;;;;;;16.30;81.13;100052.91;4948522;29;20039;-85
2021/08/08 00:40:21;;;;;;;17.40;9.98;;;;;;;16.28;81.09;100048.69;4916822;29;20027;-86
2021/08/08 00:42:47;;;;;;;15.73;11.02;;;;;;;16.22;81.46;100058.09;4947405;29;20032;-85
2021/08/08 00:45:21;;;;;;;17.17;11.02;;;;;;;16.14;81.72;100066.78;4932332;29;20027;-86
2021/08/08 00:47:46;;;;;;;15.68;10.82;;;;;;;16.18;81.85;100064.66;4948839;29;20020;-84
2021/08/08 00:50:14;;;;;;;14.43;10.10;;;;;;;16.12;81.71;100059.88;4964783;29;20042;-84
2021/08/08 00:52:42;;;;;;;16.33;9.90;;;;;;;16.02;82.37;100066.03;4965773;29;20038;-84
2021/08/08 00:55:10;;;;;;;15.73;10.30;;;;;;;16.05;81.93;100070.28;4949639;29;20038;-84
2021/08/08 00:57:36;;;;;;;16.83;9.82;;;;;;;16.01;81.76;100067.03;4964643;28;20126;-84
2021/08/08 01:00:10;;;;;;;13.65;9.63;;;;;;;15.86;82.62;100068.34;4965324;29;20023;-83
2021/08/08 01:02:49;;;;;;;15.07;9.80;;;;;;;15.89;82.89;100068.09;4965772;29;20035;-84
2021/08/08 01:05:21;;;;;;;14.18;9.98;;;;;;;15.94;82.07;100063.16;4949121;29;20102;-85
2021/08/08 01:08:07;;;;;;;15.65;9.52;;;;;;;15.90;82.19;100059.94;4935069;29;20118;-83
2021/08/08 01:10:36;;;;;;;14.52;9.60;;;;;;;15.89;82.34;100068.09;4932907;29;20035;-83
2021/08/08 01:13:02;;;;;;;15.02;9.38;;;;;;;15.78;83.17;100069.84;4947945;29;20034;-83
2021/08/08 01:15:29;;;;;;;17.27;8.48;;;;;;;15.84;82.81;100062.31;4948490;29;20031;-84
2021/08/08 01:17:56;;;;;;;13.27;8.35;;;;;;;15.89;82.82;100066.25;4964871;29;20019;-82
2021/08/08 01:20:22;;;;;;;13.63;9.15;;;;;;;15.99;82.25;100060.97;4947786;29;20034;-84
2021/08/08 01:22:58;;;;;;;15.27;8.90;;;;;;;16.03;82.30;100065.06;4963438;29;20047;-84
2021/08/08 01:25:24;;;;;;;12.93;8.40;;;;;;;16.03;82.47;100058.88;4933192;29;20028;-84
2021/08/08 01:27:57;;;;;;;16.92;8.02;;;;;;;16.06;82.09;100055.94;4947718;29;20051;-84
2021/08/08 01:30:23;;;;;;;15.00;7.65;;;;;;;16.13;81.98;100065.09;4932338;29;20134;-84
2021/08/08 01:32:49;;;;;;;13.15;7.40;;;;;;;16.12;81.89;100071.41;4947905;29;20039;-84
2021/08/08 01:35:14;;;;;;;12.23;7.85;;;;;;;16.15;81.86;100073.78;4964521;29;20047;-85
2021/08/08 01:37:41;;;;;;;14.77;8.00;;;;;;;16.19;81.92;100074.38;4964147;29;20047;-84
2021/08/08 01:40:19;;;;;;;15.07;8.40;;;;;;;16.28;81.84;100068.22;4964372;29;20034;-84
2021/08/08 01:42:44;;;;;;;15.00;8.15;;;;;;;16.35;81.73;100083.66;4947877;29;20051;-84
2021/08/08 01:45:13;;;;;;;19.48;9.05;;;;;;;16.44;81.63;100090.84;4932404;29;20054;-84
2021/08/08 01:47:46;;;;;;;23.35;9.32;;;;;;;16.43;81.91;100083.81;4884323;29;20043;-84
2021/08/08 01:50:12;;;;;;;18.52;8.50;;;;;;;16.45;82.08;100095.19;4915786;29;20035;-85
2021/08/08 01:52:39;;;;;;;18.05;7.90;;;;;;;16.51;82.28;100088.44;4949673;29;20047;-87
2021/08/08 01:55:06;;;;;;;24.27;8.25;;;;;;;16.31;83.20;100088.44;4917447;29;20090;-87
2021/08/08 01:57:35;;;;;;;13.95;7.60;;;;;;;16.38;83.88;100092.22;4932439;29;20035;-88
2021/08/08 02:00:06;;;;;;;18.02;7.13;;;;;;;16.63;83.34;100090.00;4932569;29;20086;-87
2021/08/08 02:02:31;;;;;;;17.90;6.88;;;;;;;16.76;82.76;100097.75;4964805;29;20019;-88
2021/08/08 02:05:01;;;;;;;14.10;6.82;;;;;;;16.88;82.29;100100.28;4965418;29;20034;-86
2021/08/08 02:07:30;;;;;;;13.77;6.95;;;;;;;16.85;81.90;100096.03;4931816;29;20044;-85
2021/08/08 02:10:01;;;;;;;12.30;6.88;;;;;;;17.06;81.36;100100.41;4949037;29;20047;-86
2021/08/08 02:12:28;;;;;;;13.60;7.13;;;;;;;17.00;81.10;100100.97;4965644;29;20067;-86
2021/08/08 02:14:54;;;;;;;12.95;7.10;;;;;;;17.10;80.95;100109.00;4971443;29;20027;-87
2021/08/08 02:17:20;;;;;;;12.93;7.25;;;;;;;17.10;80.80;100112.50;4954399;29;20047;-85
2021/08/08 02:19:46;;;;;;;13.25;7.90;;;;;;;17.15;80.95;100115.59;4951355;29;20032;-86
2021/08/08 02:22:17;;;;;;;17.50;8.30;;;;;;;17.08;80.82;100108.31;4930414;29;20071;-83
2021/08/08 02:25:05;;;;;;;21.38;9.07;;;;;;;17.19;80.34;100108.97;4898590;29;20124;-85
2021/08/08 02:27:34;;;;;;;17.23;9.00;;;;;;;17.15;80.91;100114.75;4892699;29;20092;-86
2021/08/08 02:30:03;;;;;;;16.00;8.38;;;;;;;17.15;80.92;100117.41;4924423;29;20043;-85
2021/08/08 02:32:29;;;;;;;18.08;8.73;;;;;;;17.15;80.59;100117.41;4910727;29;20104;-84
2021/08/08 02:34:55;;;;;;;16.17;8.95;;;;;;;17.21;80.46;100116.84;4925246;29;20495;-86
2021/08/08 02:37:29;;;;;;;14.50;7.90;;;;;;;17.15;80.11;100128.09;4914299;29;20044;-85
2021/08/08 02:40:01;;;;;;;15.18;7.93;;;;;;;17.11;79.53;100132.06;4935138;29;20051;-84
2021/08/08 02:42:27;;;;;;;15.57;7.97;;;;;;;17.11;79.15;100134.72;4920741;29;20028;-84
2021/08/08 02:44:54;;;;;;;12.65;7.82;;;;;;;17.02;79.43;100141.75;4926941;29;20515;-87
2021/08/08 02:47:20;;;;;;;14.40;7.22;;;;;;;16.83;80.79;100150.56;4923597;29;20036;-82
2021/08/08 02:49:45;;;;;;;21.92;8.23;;;;;;;16.61;82.04;100152.53;4906942;29;20079;-83
2021/08/08 02:52:11;;;;;;;21.75;8.23;;;;;;;16.56;82.38;100166.28;4907167;29;20120;-83
2021/08/08 02:54:40;;;;;;;19.20;8.52;;;;;;;16.59;82.10;100167.81;4907624;29;20547;-86
2021/08/08 02:57:07;;;;;;;18.48;8.55;;;;;;;16.54;82.03;100170.91;4941251;29;20399;-85
2021/08/08 02:59:35;;;;;;;19.60;8.55;;;;;;;16.65;81.44;100161.94;4944149;29;20099;-86
2021/08/08 03:02:03;;;;;;;14.18;7.40;;;;;;;16.62;81.02;100164.88;4927139;29;20459;-85
2021/08/08 03:04:30;;;;;;;22.58;8.55;;;;;;;16.84;80.64;100165.59;4943173;29;20044;-86
2021/08/08 03:06:59;;;;;;;23.30;7.95;;;;;;;16.71;80.78;100172.06;4906953;29;20050;-85
2021/08/08 03:09:24;;;;;;;21.80;8.00;;;;;;;16.77;80.06;100179.50;4922630;29;20281;-86
2021/08/08 03:11:54;;;;;;;21.25;7.55;;;;;;;16.80;79.49;100173.06;4906314;29;20048;-84
2021/08/08 03:14:23;;;;;;;19.10;7.22;;;;;;;16.81;79.33;100185.44;4921961;29;20117;-84
2021/08/08 03:16:48;;;;;;;21.00;7.13;;;;;;;16.84;78.95;100189.63;4922341;29;20048;-84
2021/08/08 03:19:14;;;;;;;17.70;6.80;;;;;;;16.75;78.87;100189.50;4908976;29;20434;-84
2021/08/08 03:21:43;;;;;;;16.73;6.68;;;;;;;16.69;78.24;100190.88;4877923;29;20051;-84
2021/08/08 03:24:19;;;;;;;16.85;6.97;;;;;;;16.76;77.94;100204.53;4928837;29;20128;-85
2021/08/08 03:26:45;;;;;;;16.80;6.88;;;;;;;16.84;77.64;100200.31;4898524;29;20579;-84
2021/08/08 03:29:19;;;;;;;11.27;6.15;;;;;;;16.89;77.36;100206.94;4897727;29;20213;-83
2021/08/08 03:31:46;;;;;;;16.38;6.32;;;;;;;16.87;77.32;100206.22;4927112;29;20056;-84
2021/08/08 03:34:12;;;;;;;15.80;6.28;;;;;;;16.80;77.77;100208.59;4897441;29;20027;-84
2021/08/08 03:36:40;;;;;;;16.45;7.18;;;;;;;16.76;78.61;100222.38;4894096;29;20109;-84
2021/08/08 03:39:08;;;;;;;17.27;6.55;;;;;;;16.73;78.71;100209.28;4862890;29;20049;-85
2021/08/08 03:41:34;;;;;;;12.13;6.35;;;;;;;16.83;78.33;100215.50;4879329;29;20139;-86
2021/08/08 03:44:00;;;;;;;17.67;6.82;;;;;;;16.76;77.92;100209.88;4880294;29;20116;-84
2021/08/08 03:46:25;;;;;;;20.40;6.80;;;;;;;16.83;77.80;100217.31;4879837;29;20032;-85
2021/08/08 03:48:53;;;;;;;16.70;6.50;;;;;;;16.83;77.75;100222.66;4911266;29;20048;-85
2021/08/08 03:51:23;;;;;;;14.82;6.20;;;;;;;16.92;78.06;100224.50;4893921;29;20036;-84
2021/08/08 03:53:53;;;;;;;17.00;7.10;;;;;;;16.91;78.59;100222.84;4908715;29;20124;-83
2021/08/08 03:56:19;;;;;;;17.20;6.07;;;;;;;16.76;78.50;100231.22;4898048;29;20039;-84
2021/08/08 03:58:45;;;;;;;12.73;6.30;;;;;;;16.65;79.18;100240.19;4932234;29;20028;-84
2021/08/08 04:01:13;;;;;;;13.77;6.38;;;;;;;16.81;78.60;100237.00;4932080;29;20028;-83
2021/08/08 04:03:47;;;;;;;14.57;6.28;;;;;;;16.71;78.75;100233.44;4928940;29;20084;-84
2021/08/08 04:06:13;;;;;;;17.52;6.80;;;;;;;16.79;78.78;100244.31;4925425;29;20044;-84
2021/08/08 04:08:39;;;;;;;18.55;6.60;;;;;;;16.87;78.31;100240.09;4925571;29;20036;-84
2021/08/08 04:11:13;;;;;;;16.38;6.50;;;;;;;16.86;77.73;100243.75;4908226;29;20052;-84
2021/08/08 04:13:38;;;;;;;15.10;6.05;;;;;;;16.91;77.28;100260.22;4925015;29;20059;-85
2021/08/08 04:16:04;;;;;;;12.02;6.05;;;;;;;16.90;77.27;100248.69;4907694;29;20099;-84
2021/08/08 04:18:34;;;;;;;16.00;6.75;;;;;;;16.85;77.16;100253.56;4923856;29;20036;-83
2021/08/08 04:21:00;;;;;;;11.88;5.72;;;;;;;17.06;76.65;100256.16;4893078;29;20398;-83
2021/08/08 04:23:25;;;;;;;17.10;6.35;;;;;;;16.86;77.56;100257.09;4908241;29;20111;-83
2021/08/08 04:25:51;;;;;;;16.70;5.55;;;;;;;16.99;77.15;100255.00;4925061;29;20091;-83
2021/08/08 04:28:16;;;;;;;14.85;6.07;;;;;;;16.92;77.28;100267.25;4925277;29;20457;-83
2021/08/08 04:30:42;;;;;;;12.85;5.63;;;;;;;16.87;76.99;100275.66;4923946;29;20036;-83
2021/08/08 04:33:08;;;;;;;17.45;5.70;;;;;;;16.85;76.67;100274.13;4904778;29;20044;-83
2021/08/08 04:35:34;;;;;;;13.60;5.72;;;;;;;17.04;76.42;100279.50;4966578;23;20046;-83
2021/08/08 04:38:00;;;;;;;11.82;5.13;;;;;;;16.84;76.57;100286.63;4945176;28;20046;-83
2021/08/08 04:40:26;;;;;;;12.25;5.25;;;;;;;16.78;76.73;100284.50;4978670;28;20505;-84
2021/08/08 04:42:54;;;;;;;13.68;5.35;;;;;;;16.86;76.43;100281.13;4963347;28;20100;-84
2021/08/08 04:45:23;;;;;;;13.32;4.93;;;;;;;17.03;75.95;100292.97;4963780;28;20114;-83
2021/08/08 04:47:49;;;;;;;15.20;5.32;;;;;;;17.07;75.77;100286.38;4979679;28;20031;-83
2021/08/08 04:50:15;;;;;;;15.48;5.47;;;;;;;16.79;76.65;100295.03;4963604;28;20038;-82
2021/08/08 04:52:40;;;;;;;11.02;4.68;;;;;;;16.78;76.95;100288.00;4979697;28;20035;-84
2021/08/08 04:55:06;;;;;;;15.13;5.13;;;;;;;16.75;77.33;100293.63;4981634;28;20038;-83
2021/08/08 04:57:32;;;;;;;22.38;6.32;;;;;;;16.62;78.06;100298.34;4965720;28;20026;-83
2021/08/08 04:59:57;;;;;;;12.15;5.60;;;;;;;16.75;78.10;100295.44;4965414;28;20030;-84
2021/08/08 05:02:24;;;;;;;19.85;5.72;;;;;;;16.75;78.09;100296.28;4983115;28;20458;-84
2021/08/08 05:04:51;;;;;;;13.70;5.75;;;;;;;16.83;77.85;100303.63;4965891;28;20126;-84
2021/08/08 05:07:19;;;;;;;14.70;5.65;;;;;;;16.90;77.82;100310.09;4981361;28;20054;-85
2021/08/08 05:09:45;;;;;;;11.27;5.28;;;;;;;16.83;78.01;100314.31;4981890;28;20055;-84
2021/08/08 05:12:12;;;;;;;12.85;5.55;;;;;;;16.76;78.33;100308.66;4950016;28;20027;-84
2021/08/08 05:14:38;;;;;;;13.40;5.25;;;;;;;16.77;78.36;100314.84;4965821;28;20109;-83
2021/08/08 05:17:06;;;;;;;14.15;5.50;;;;;;;16.55;78.40;100320.22;4965153;28;20023;-83
2021/08/08 05:19:33;;;;;;;12.48;5.47;;;;;;;16.86;77.23;100314.03;4965537;28;20038;-83
2021/08/08 05:21:59;;;;;;;13.27;4.95;;;;;;;16.80;77.06;100323.41;4979469;28;20034;-84
2021/08/08 05:24:26;;;;;;;13.55;5.60;;;;;;;16.78;76.08;100333.41;4981068;28;20481;-84
2021/08/08 05:26:56;;;;;;;10.68;4.13;;;;;;;16.94;75.35;100318.69;4965291;28;20073;-83
2021/08/08 05:29:23;;;;;;;12.63;4.80;;;;;;;17.04;75.06;100332.91;4981410;28;20041;-84
2021/08/08 05:31:58;;;;;;;16.05;5.43;;;;;;;16.92;75.23;100323.31;4965816;28;20022;-84
2021/08/08 05:34:24;;;;;;;16.73;5.00;;;;;;;16.90;75.27;100326.13;4966004;28;20126;-84
2021/08/08 05:36:50;;;;;;;11.95;4.60;;;;;;;16.99;74.81;100334.31;4984354;28;20042;-83
2021/08/08 05:39:16;;;;;;;14.15;4.30;;;;;;;17.18;74.24;100333.53;4967815;28;20049;-84
2021/08/08 05:41:45;;;;;;;10.43;3.88;;;;;;;17.34;73.31;100335.69;4950027;28;20050;-83
2021/08/08 05:44:12;;;;;;;11.98;4.53;;;;;;;17.17;73.72;100342.53;4966010;28;20057;-84
2021/08/08 05:46:39;;;;;;;14.63;4.35;;;;;;;17.24;73.00;100332.97;4982862;28;20023;-84
2021/08/08 05:49:07;;;;;;;13.13;4.90;;;;;;;17.28;73.81;100349.59;4982938;28;20042;-84
2021/08/08 05:51:33;;;;;;;17.08;4.85;;;;;;;17.23;73.81;100349.16;4983446;28;20053;-83
2021/08/08 05:53:59;;;;;;;14.27;4.32;;;;;;;17.04;74.24;100348.94;4981632;28;20035;-84
2021/08/08 05:56:24;;;;;;;8.43;4.40;;;;;;;16.99;74.51;100351.16;4965867;28;20053;-85
2021/08/08 05:58:51;;;;;;;15.68;4.68;;;;;;;17.14;73.58;100353.50;4984369;28;20117;-84
2021/08/08 06:01:18;;;;;;;12.70;4.00;;;;;;;17.13;72.95;100359.81;4981962;28;20022;-85
2021/08/08 06:03:44;;;;;;;16.00;4.38;;;;;;;17.34;72.66;100362.41;4982433;28;20098;-83
2021/08/08 06:06:14;;;;;;;17.90;4.63;;;;;;;17.45;72.29;100361.44;4982383;28;20026;-83
2021/08/08 06:08:43;;;;;;;10.55;4.13;;;;;;;17.45;72.21;100364.09;4983464;28;20050;-82
2021/08/08 06:11:08;;;;;;;15.20;4.43;;;;;;;17.51;71.32;100365.41;4965201;28;20038;-82
2021/08/08 06:13:35;;;;;;;11.82;3.60;;;;;;;17.36;72.16;100379.16;4975163;28;20047;-82
2021/08/08 06:16:00;;;;;;;15.98;3.95;;;;;;;17.55;71.36;100381.03;4976072;28;20051;-83
2021/08/08 06:18:25;;;;;;;9.07;3.40;;;;;;;17.53;71.01;100380.31;4959257;28;20039;-83
2021/08/08 06:20:51;;;;;;;13.13;4.07;;;;;;;17.83;70.67;100379.47;4976615;28;20397;-82
2021/08/08 06:23:16;;;;;;;10.75;3.60;;;;;;;17.55;71.20;100391.72;4959016;28;20085;-82
2021/08/08 06:25:42;;;;;;;10.50;3.45;;;;;;;17.72;70.61;100393.81;4975957;28;20031;-81
2021/08/08 06:28:07;;;;;;;13.57;3.35;;;;;;;17.88;69.60;100388.78;4976130;28;20030;-83
2021/08/08 06:30:33;;;;;;;14.25;3.20;;;;;;;17.77;70.07;100399.59;4978731;28;20080;-83
2021/08/08 06:32:58;;;;;;;14.02;3.42;;;;;;;17.86;69.74;100387.22;4977386;28;20027;-82
2021/08/08 06:35:24;;;;;;;8.38;3.13;;;;;;;18.00;69.56;100391.28;4958118;28;20047;-81
2021/08/08 06:37:50;;;;;;;14.35;4.05;;;;;;;18.24;68.61;100415.00;4945171;29;20078;-82
2021/08/08 06:40:16;;;;;;;13.23;3.88;;;;;;;18.14;68.41;100403.44;4963444;29;20047;-83
2021/08/08 06:42:41;;;;;;;10.52;3.08;;;;;;;18.36;67.85;100398.75;4959340;29;20023;-83
2021/08/08 06:45:07;;;;;;;12.50;3.60;;;;;;;18.44;67.55;100412.28;4957184;29;20426;-82
2021/08/08 06:47:32;;;;;;;9.07;3.15;;;;;;;18.78;67.50;100413.63;4958135;29;20455;-83
2021/08/08 06:49:57;;;;;;;12.35;3.40;;;;;;;18.51;67.95;100402.66;4956578;29;20105;-84
2021/08/08 06:52:23;;;;;;;17.67;3.13;;;;;;;18.19;67.77;100422.59;4939879;29;20042;-84
2021/08/08 06:54:48;;;;;;;12.07;3.40;;;;;;;18.28;67.70;100413.69;4939117;29;20081;-84
2021/08/08 06:57:28;;;;;;;15.10;3.42;;;;;;;18.39;67.41;100422.56;4956302;29;20038;-83
2021/08/08 06:59:53;;;;;;;13.02;3.40;;;;;;;18.50;67.50;100427.75;4939570;29;20083;-81
2021/08/08 07:02:19;;;;;;;15.15;3.03;;;;;;;18.66;67.33;100429.00;4939156;29;20097;-79
2021/08/08 07:04:44;;;;;;;16.92;3.22;;;;;;;18.67;66.81;100420.81;4955738;29;20035;-81
2021/08/08 07:07:10;;;;;;;12.88;3.72;;;;;;;18.96;65.98;100435.13;4956853;29;20484;-82
2021/08/08 07:09:35;;;;;;;17.38;3.03;;;;;;;18.76;65.68;100431.66;4939176;29;20474;-82
2021/08/08 07:12:00;;;;;;;15.38;2.85;;;;;;;18.86;65.30;100435.13;4923425;29;20031;-82
2021/08/08 07:14:28;;;;;;;17.42;3.10;;;;;;;18.40;66.61;100443.81;4956363;29;20023;-82
2021/08/08 07:16:54;;;;;;;11.30;2.90;;;;;;;18.40;65.79;100446.50;4956469;29;20024;-83
2021/08/08 07:19:20;;;;;;;12.35;2.95;;;;;;;18.08;66.08;100452.97;4943040;29;20051;-82
2021/08/08 07:21:45;;;;;;;11.40;3.03;;;;;;;18.11;66.02;100446.47;4943839;29;20097;-82
2021/08/08 07:24:11;;;;;;;12.40;3.20;;;;;;;18.41;65.98;100453.56;4960176;29;20035;-81
2021/08/08 07:26:36;;;;;;;16.77;3.40;;;;;;;18.58;65.56;100453.81;4941086;29;20042;-81
2021/08/08 07:29:01;;;;;;;12.35;3.05;;;;;;;18.35;65.50;100461.31;4955959;29;20027;-81
2021/08/08 07:31:27;;;;;;;15.10;3.42;;;;;;;18.44;64.69;100468.47;4956119;29;20079;-81
2021/08/08 07:33:53;;;;;;;15.35;3.28;;;;;;;18.71;64.08;100471.41;4938323;29;20035;-82
2021/08/08 07:36:18;;;;;;;13.52;3.35;;;;;;;18.89;63.36;100450.91;4955345;29;20079;-81
2021/08/08 07:38:44;;;;;;;12.95;2.90;;;;;;;19.15;62.79;100469.06;4955915;29;20046;-81
2021/08/08 07:41:11;;;;;;;11.02;2.88;;;;;;;18.72;63.22;100475.78;4923167;29;20039;-82
2021/08/08 07:43:36;;;;;;;16.05;3.55;;;;;;;19.26;62.28;100481.44;4955823;29;20027;-82
2021/08/08 07:46:02;;;;;;;14.30;3.42;;;;;;;19.20;62.63;100487.38;4955165;29;20377;-82
2021/08/08 07:48:27;;;;;;;12.02;3.30;;;;;;;19.01;61.98;100485.56;4956198;29;20038;-81
2021/08/08 07:50:53;;;;;;;14.88;3.63;;;;;;;19.02;61.91;100481.91;4961816;29;20026;-81
2021/08/08 07:53:18;;;;;;;13.40;2.88;;;;;;;18.76;62.79;100487.91;4970919;29;20084;-80
2021/08/08 07:55:46;;;;;;;13.25;2.92;;;;;;;18.76;62.20;100494.09;4952752;29;20031;-81
2021/08/08 07:58:17;;;;;;;15.02;2.67;;;;;;;18.99;61.56;100492.91;4942797;29;20039;-82
2021/08/08 08:00:47;;;;;;;14.93;2.55;;;;;;;19.07;60.93;100498.38;4971624;29;20043;-80
2021/08/08 08:03:12;;;;;;;13.70;3.03;;;;;;;19.19;60.45;100504.44;4967906;29;20019;-80
2021/08/08 08:05:41;;;;;;;12.48;2.75;;;;;;;19.29;60.22;100513.31;4954853;29;20035;-81
2021/08/08 08:08:28;;;;;;;12.02;3.45;;;;;;;19.26;60.24;100500.19;4951237;29;20026;-82
2021/08/08 08:10:56;;;;;;;17.73;3.08;;;;;;;19.62;59.93;100504.84;4960031;29;20109;-81
2021/08/08 08:13:22;;;;;;;15.05;3.60;;;;;;;19.61;59.93;100502.28;4944569;29;20505;-81
2021/08/08 08:15:47;;;;;;;12.02;4.05;;;;;;;19.46;59.96;100505.47;4961090;29;20045;-82
2021/08/08 08:18:13;;;;;;;13.48;3.25;;;;;;;19.57;60.44;100516.97;4960174;29;20039;-81
2021/08/08 08:20:41;;;;;;;14.32;3.25;;;;;;;19.28;61.17;100519.63;4941839;29;20031;-82
2021/08/08 08:23:07;;;;;;;17.65;3.58;;;;;;;19.14;60.90;100514.78;4941488;29;20038;-82
2021/08/08 08:25:33;;;;;;;14.85;4.00;;;;;;;19.15;61.89;100519.13;4959219;29;20027;-82
2021/08/08 08:27:58;;;;;;;15.75;3.70;;;;;;;19.28;62.68;100522.31;4959531;29;20019;-83
2021/08/08 08:30:30;;;;;;;16.42;3.58;;;;;;;19.38;62.38;100534.84;4959834;29;20038;-83
2021/08/08 08:32:55;;;;;;;15.52;3.95;;;;;;;19.27;62.94;100541.22;4959073;29;20023;-81
2021/08/08 08:35:21;;;;;;;19.40;4.10;;;;;;;19.16;63.03;100529.69;4997291;23;20061;-81
2021/08/08 08:37:46;;;;;;;16.35;3.88;;;;;;;19.40;62.73;100533.72;4957961;29;20070;-81
2021/08/08 08:40:12;;;;;;;14.73;4.00;;;;;;;19.17;62.74;100531.38;4962901;29;20046;-82
2021/08/08 08:42:49;;;;;;;13.45;3.90;;;;;;;19.36;62.18;100537.66;4948608;29;20043;-80
2021/08/08 08:45:15;;;;;;;15.00;4.20;;;;;;;19.00;63.30;100532.94;4968127;29;20031;-81
2021/08/08 08:47:44;;;;;;;10.35;3.75;;;;;;;19.30;62.66;100544.47;4972464;29;20034;-82
2021/08/08 08:50:10;;;;;;;11.20;3.83;;;;;;;18.76;63.47;100557.53;4975508;29;20062;-81
2021/08/08 08:52:36;;;;;;;13.73;4.15;;;;;;;18.71;64.71;100557.97;4961096;29;20012;-81
2021/08/08 08:55:02;;;;;;;14.75;4.70;;;;;;;18.57;66.74;100553.03;4972686;29;20063;-81
2021/08/08 08:57:28;;;;;;;13.02;4.38;;;;;;;18.32;68.24;100558.81;4970181;29;20093;-81
2021/08/08 08:59:53;;;;;;;14.13;4.43;;;;;;;18.03;69.63;100559.56;4938797;29;20031;-82
2021/08/08 09:02:18;;;;;;;13.65;4.90;;;;;;;18.29;70.25;100559.91;4955366;29;20034;-80
2021/08/08 09:04:44;;;;;;;15.93;4.60;;;;;;;18.31;69.87;100567.78;4954887;29;20039;-81
2021/08/08 09:07:10;;;;;;;16.25;4.88;;;;;;;18.00;69.67;100571.38;4971321;29;20062;-81
2021/08/08 09:09:36;;;;;;;14.02;5.57;;;;;;;17.91;70.84;100586.44;4970908;29;20027;-83
2021/08/08 09:12:02;;;;;;;13.60;5.72;;;;;;;17.81;71.37;100585.53;4954026;29;20029;-83
2021/08/08 09:14:27;;;;;;;13.27;5.75;;;;;;;17.89;71.24;100580.34;4971790;29;20055;-82
2021/08/08 09:16:54;;;;;;;13.15;5.53;;;;;;;17.65;71.68;100581.53;4970606;28;20031;-82
2021/08/08 09:19:21;;;;;;;15.10;6.25;;;;;;;17.79;71.82;100593.69;4974332;29;20031;-83
2021/08/08 09:21:49;;;;;;;16.33;6.75;;;;;;;18.14;71.48;100582.69;4971646;29;20039;-83
2021/08/08 09:24:28;;;;;;;17.05;6.30;;;;;;;18.15;71.49;100579.88;4970912;29;20050;-86
2021/08/08 09:27:07;;;;;;;16.30;5.50;;;;;;;18.97;68.85;100596.72;4953548;29;20102;-82
2021/08/08 09:29:33;;;;;;;17.40;5.40;;;;;;;19.54;66.46;100587.84;4952953;29;20039;-82
2021/08/08 09:31:59;;;;;;;15.80;5.10;;;;;;;19.42;66.25;100587.19;4970655;29;20027;-82
2021/08/08 09:34:27;;;;;;;18.45;5.18;;;;;;;19.89;65.31;100601.56;4937219;29;20055;-82
2021/08/08 09:36:53;;;;;;;16.27;4.53;;;;;;;19.49;63.91;100593.66;4953583;29;20039;-81
2021/08/08 09:39:34;;;;;;;17.85;5.07;;;;;;;19.09;65.30;100590.25;4971954;29;20027;-81
2021/08/08 09:42:21;;;;;;;19.13;4.63;;;;;;;19.38;64.49;100593.81;4971850;29;20038;-81
2021/08/08 09:45:07;;;;;;;18.83;4.32;;;;;;;19.40;64.03;100602.56;4942863;29;20031;-81
2021/08/08 09:47:42;;;;;;;14.43;4.50;;;;;;;19.25;64.30;100615.59;4940743;29;20062;-83
2021/08/08 09:50:11;;;;;;;15.98;4.22;;;;;;;19.05;64.15;100627.16;4964413;29;20038;-81
2021/08/08 09:52:36;;;;;;;13.05;4.90;;;;;;;19.06;64.22;100622.66;4975688;29;20031;-80
2021/08/08 09:55:15;;;;;;;12.38;4.45;;;;;;;18.74;65.42;100619.28;4974671;29;20071;-82
2021/08/08 09:57:40;;;;;;;14.57;4.35;;;;;;;18.47;65.46;100612.75;4976701;29;20087;-82
2021/08/08 10:00:07;;;;;;;17.25;4.45;;;;;;;18.88;64.73;100633.22;4958293;29;20035;-81
2021/08/08 10:02:34;;;;;;;11.68;4.07;;;;;;;19.18;64.30;100631.41;4961838;29;20008;-82
2021/08/08 10:05:00;;;;;;;15.60;4.63;;;;;;;20.06;62.30;100636.66;4941844;29;20030;-82
2021/08/08 10:07:25;;;;;;;14.18;4.45;;;;;;;19.46;63.72;100633.31;4974379;29;20035;-83
2021/08/08 10:09:51;;;;;;;14.10;4.38;;;;;;;18.32;68.01;100651.63;4974539;29;20146;-82
2021/08/08 10:12:40;;;;;;;10.52;4.53;;;;;;;18.43;69.21;100644.31;4955742;29;20028;-80
2021/08/08 10:15:06;;;;;;;17.75;4.85;;;;;;;18.56;68.98;100637.84;4932125;29;20050;-83
2021/08/08 10:17:35;;;;;;;12.48;4.90;;;;;;;19.41;65.48;100644.47;4916823;29;20135;-82
2021/08/08 10:20:00;;;;;;;18.27;5.55;;;;;;;19.22;65.81;100648.06;4919182;29;20044;-82
2021/08/08 10:22:26;;;;;;;13.43;5.05;;;;;;;19.23;66.39;100649.72;4918013;29;20119;-82
2021/08/08 10:24:56;;;;;;;18.05;5.30;;;;;;;19.87;65.66;100638.41;4918724;29;20083;-82
2021/08/08 10:27:22;;;;;;;15.25;4.80;;;;;;;19.83;63.66;100650.44;4933326;29;20036;-82
2021/08/08 10:29:48;;;;;;;14.55;4.38;;;;;;;20.44;60.26;100653.56;4901209;29;20020;-82
2021/08/08 10:32:14;;;;;;;14.57;3.97;;;;;;;20.49;59.31;100658.47;4916450;29;20043;-83
2021/08/08 10:34:39;;;;;;;17.77;4.07;;;;;;;21.09;57.63;100654.34;4915822;29;20059;-82
2021/08/08 10:37:14;;;;;;;14.45;3.85;;;;;;;20.60;56.53;100647.47;4926166;29;20052;-82
2021/08/08 10:39:52;;;;;;;14.40;3.75;;;;;;;20.55;55.67;100655.19;4907138;29;20047;-81
2021/08/08 10:42:18;;;;;;;14.43;3.55;;;;;;;20.35;57.47;100665.19;4923699;29;20131;-82
2021/08/08 10:44:55;;;;;;;15.05;3.88;;;;;;;20.28;57.61;100659.56;4901991;29;20063;-83
2021/08/08 10:47:31;;;;;;;15.73;3.83;;;;;;;20.41;55.97;100667.28;4901165;29;20096;-83
2021/08/08 10:50:11;;;;;;;15.32;3.83;;;;;;;20.44;57.15;100658.91;4915991;29;20040;-82
2021/08/08 10:52:42;;;;;;;13.05;3.90;;;;;;;20.32;55.55;100660.13;4961414;29;20070;-83
2021/08/08 10:55:08;;;;;;;12.07;4.00;;;;;;;20.26;55.69;100683.03;4955918;29;20177;-82
2021/08/08 10:57:44;;;;;;;18.48;3.85;;;;;;;20.85;54.00;100679.97;4954748;29;20343;-82
2021/08/08 11:00:31;;;;;;;12.98;3.20;;;;;;;20.63;54.32;100692.03;4951676;29;20043;-82
2021/08/08 11:02:57;;;;;;;11.48;3.10;;;;;;;20.66;53.69;100678.28;4951124;29;20050;-82
2021/08/08 11:05:22;;;;;;;9.48;3.08;;;;;;;20.95;53.04;100690.69;4953228;29;20057;-82
2021/08/08 11:07:48;;;;;;;11.60;3.33;;;;;;;20.34;54.55;100669.72;4953275;29;20036;-81
2021/08/08 11:10:27;;;;;;;11.40;2.85;;;;;;;20.78;53.34;100689.66;4937334;29;20072;-83
2021/08/08 11:12:54;;;;;;;12.30;3.20;;;;;;;20.13;53.97;100678.03;4952957;29;20043;-83
2021/08/08 11:15:21;;;;;;;13.85;3.58;;;;;;;20.17;52.97;100684.78;4952841;29;20040;-82
2021/08/08 11:17:48;;;;;;;11.88;2.70;;;;;;;19.85;54.47;100684.16;4952996;29;20099;-81
2021/08/08 11:20:14;;;;;;;10.02;3.13;;;;;;;20.26;54.24;100680.34;4952556;29;20068;-83